sensor_id;sensor_type;location;lat;lon;timestamp;pressure;altitude;pressure_sealevel;temperature;humidity
16613;BME280;8419;52.358;9.752;2023-01-26T00:02:20;101807.00;;;8.86;38.81
16613;BME280;8419;52.358;9.752;2023-01-26T00:05:07;101816.00;;;8.83;38.83
16613;BME280;8419;52.358;9.752;2023-01-26T00:07:52;101806.00;;;8.79;38.98
16613;BME280;8419;52.358;9.752;2023-01-26T00:10:39;101808.00;;;8.78;38.93
16613;BME280;8419;52.358;9.752;2023-01-26T00:13:25;101805.00;;;8.79;38.84
16613;BME280;8419;52.358;9.752;2023-01-26T00:16:14;101808.00;;;8.78;38.83
16613;BME280;8419;52.358;9.752;2023-01-26T00:19:00;101811.00;;;8.78;38.83
16613;BME280;8419;52.358;9.752;2023-01-26T00:21:49;101802.00;;;8.88;38.78
16613;BME280;8419;52.358;9.752;2023-01-26T00:24:34;101795.00;;;8.84;38.94
16613;BME280;8419;52.358;9.752;2023-01-26T00:27:19;101786.00;;;8.94;38.82
16613;BME280;8419;52.358;9.752;2023-01-26T00:30:10;101782.00;;;8.99;38.78
16613;BME280;8419;52.358;9.752;2023-01-26T00:32:55;101780.00;;;9.03;38.72
16613;BME280;8419;52.358;9.752;2023-01-26T00:35:42;101781.00;;;9.13;38.64
16613;BME280;8419;52.358;9.752;2023-01-26T00:38:28;101770.00;;;9.20;38.64
16613;BME280;8419;52.358;9.752;2023-01-26T00:41:14;101771.00;;;9.24;38.59
16613;BME280;8419;52.358;9.752;2023-01-26T00:44:19;101771.00;;;9.24;38.64
16613;BME280;8419;52.358;9.752;2023-01-26T00:47:06;101763.00;;;9.27;38.62
16613;BME280;8419;52.358;9.752;2023-01-26T00:49:52;101756.00;;;9.27;38.69
16613;BME280;8419;52.358;9.752;2023-01-26T00:52:38;101755.00;;;9.28;38.71
16613;BME280;8419;52.358;9.752;2023-01-26T00:55:24;101757.00;;;9.37;38.57
16613;BME280;8419;52.358;9.752;2023-01-26T00:58:16;101753.00;;;9.38;38.56
16613;BME280;8419;52.358;9.752;2023-01-26T01:01:04;101746.00;;;9.46;38.50
16613;BME280;8419;52.358;9.752;2023-01-26T01:03:49;101753.00;;;9.53;38.34
16613;BME280;8419;52.358;9.752;2023-01-26T01:06:36;101749.00;;;9.54;38.35
16613;BME280;8419;52.358;9.752;2023-01-26T01:09:22;101748.00;;;9.51;38.46
16613;BME280;8419;52.358;9.752;2023-01-26T01:12:07;101751.00;;;9.46;38.54
16613;BME280;8419;52.358;9.752;2023-01-26T01:14:53;101750.00;;;9.58;38.35
16613;BME280;8419;52.358;9.752;2023-01-26T01:17:38;101740.00;;;9.60;38.36
16613;BME280;8419;52.358;9.752;2023-01-26T01:20:24;101727.00;;;9.57;38.32
16613;BME280;8419;52.358;9.752;2023-01-26T01:23:11;101728.00;;;9.59;38.34
16613;BME280;8419;52.358;9.752;2023-01-26T01:25:57;101734.00;;;9.58;38.35
16613;BME280;8419;52.358;9.752;2023-01-26T01:28:43;101741.00;;;9.56;38.42
16613;BME280;8419;52.358;9.752;2023-01-26T01:31:29;101734.00;;;9.61;38.37
16613;BME280;8419;52.358;9.752;2023-01-26T01:34:14;101734.00;;;9.64;38.33
16613;BME280;8419;52.358;9.752;2023-01-26T01:36:59;101726.00;;;9.67;38.31
16613;BME280;8419;52.358;9.752;2023-01-26T01:39:45;101732.00;;;9.66;38.32
16613;BME280;8419;52.358;9.752;2023-01-26T01:42:32;101734.00;;;9.64;38.35
16613;BME280;8419;52.358;9.752;2023-01-26T01:48:39;101715.00;;;9.68;38.41
16613;BME280;8419;52.358;9.752;2023-01-26T01:51:32;101717.00;;;9.69;38.34
16613;BME280;8419;52.358;9.752;2023-01-26T01:54:23;101711.00;;;9.69;38.39
16613;BME280;8419;52.358;9.752;2023-01-26T01:57:12;101716.00;;;9.75;38.32
16613;BME280;8419;52.358;9.752;2023-01-26T02:00:06;101702.00;;;9.79;38.31
16613;BME280;8419;52.358;9.752;2023-01-26T02:02:56;101692.00;;;9.83;38.26
16613;BME280;8419;52.358;9.752;2023-01-26T02:05:58;101692.00;;;9.86;38.26
16613;BME280;8419;52.358;9.752;2023-01-26T02:08:47;101701.00;;;9.82;38.32
16613;BME280;8419;52.358;9.752;2023-01-26T02:11:36;101687.00;;;9.76;38.43
16613;BME280;8419;52.358;9.752;2023-01-26T02:14:24;101685.00;;;9.83;38.35
16613;BME280;8419;52.358;9.752;2023-01-26T02:17:11;101692.00;;;9.83;38.35
16613;BME280;8419;52.358;9.752;2023-01-26T02:20:02;101683.00;;;9.84;38.33
16613;BME280;8419;52.358;9.752;2023-01-26T02:22:55;101685.00;;;9.81;38.39
16613;BME280;8419;52.358;9.752;2023-01-26T02:25:56;101688.00;;;9.84;38.39
16613;BME280;8419;52.358;9.752;2023-01-26T02:28:43;101682.00;;;9.88;38.37
16613;BME280;8419;52.358;9.752;2023-01-26T02:31:31;101679.00;;;9.87;38.35
16613;BME280;8419;52.358;9.752;2023-01-26T02:34:17;101674.00;;;9.85;38.32
16613;BME280;8419;52.358;9.752;2023-01-26T02:37:02;101677.00;;;9.89;38.27
16613;BME280;8419;52.358;9.752;2023-01-26T02:39:54;101671.00;;;9.86;38.32
16613;BME280;8419;52.358;9.752;2023-01-26T02:42:42;101671.00;;;9.87;38.26
16613;BME280;8419;52.358;9.752;2023-01-26T02:45:29;101669.00;;;9.88;38.31
16613;BME280;8419;52.358;9.752;2023-01-26T02:48:17;101673.00;;;9.86;38.30
16613;BME280;8419;52.358;9.752;2023-01-26T02:52:30;101674.00;;;9.88;38.32
16613;BME280;8419;52.358;9.752;2023-01-26T02:55:16;101665.00;;;9.95;38.27
16613;BME280;8419;52.358;9.752;2023-01-26T02:58:08;101672.00;;;10.02;38.22
16613;BME280;8419;52.358;9.752;2023-01-26T03:00:56;101668.00;;;9.96;38.30
16613;BME280;8419;52.358;9.752;2023-01-26T03:03:41;101665.00;;;9.95;38.38
16613;BME280;8419;52.358;9.752;2023-01-26T03:06:28;101664.00;;;9.94;38.35
16613;BME280;8419;52.358;9.752;2023-01-26T03:09:15;101662.00;;;9.87;38.44
16613;BME280;8419;52.358;9.752;2023-01-26T03:12:01;101662.00;;;9.82;38.47
16613;BME280;8419;52.358;9.752;2023-01-26T03:14:47;101678.00;;;9.80;38.49
16613;BME280;8419;52.358;9.752;2023-01-26T03:18:20;101674.00;;;9.81;38.48
16613;BME280;8419;52.358;9.752;2023-01-26T03:21:25;101668.00;;;9.83;38.46
16613;BME280;8419;52.358;9.752;2023-01-26T03:24:31;101672.00;;;9.84;38.45
16613;BME280;8419;52.358;9.752;2023-01-26T03:27:39;101667.00;;;9.80;38.51
16613;BME280;8419;52.358;9.752;2023-01-26T03:30:25;101671.00;;;9.79;38.48
16613;BME280;8419;52.358;9.752;2023-01-26T03:33:11;101668.00;;;9.81;38.51
16613;BME280;8419;52.358;9.752;2023-01-26T03:35:56;101663.00;;;9.84;38.53
16613;BME280;8419;52.358;9.752;2023-01-26T03:38:42;101664.00;;;9.88;38.49
16613;BME280;8419;52.358;9.752;2023-01-26T03:41:28;101666.00;;;9.85;38.50
16613;BME280;8419;52.358;9.752;2023-01-26T03:44:32;101653.00;;;9.78;38.57
16613;BME280;8419;52.358;9.752;2023-01-26T03:47:37;101653.00;;;9.75;38.64
16613;BME280;8419;52.358;9.752;2023-01-26T03:50:41;101646.00;;;9.74;38.66
16613;BME280;8419;52.358;9.752;2023-01-26T03:53:47;101652.00;;;9.83;38.58
16613;BME280;8419;52.358;9.752;2023-01-26T03:56:51;101643.00;;;9.85;38.55
16613;BME280;8419;52.358;9.752;2023-01-26T03:59:37;101648.00;;;9.81;38.63
16613;BME280;8419;52.358;9.752;2023-01-26T04:02:22;101647.00;;;9.83;38.67
16613;BME280;8419;52.358;9.752;2023-01-26T04:05:27;101653.00;;;9.86;38.67
16613;BME280;8419;52.358;9.752;2023-01-26T04:08:32;101650.00;;;9.89;38.59
16613;BME280;8419;52.358;9.752;2023-01-26T04:11:17;101642.00;;;9.84;38.71
16613;BME280;8419;52.358;9.752;2023-01-26T04:14:02;101644.00;;;9.89;38.78
16613;BME280;8419;52.358;9.752;2023-01-26T04:17:06;101649.00;;;10.01;38.69
16613;BME280;8419;52.358;9.752;2023-01-26T04:20:14;101645.00;;;10.03;38.69
16613;BME280;8419;52.358;9.752;2023-01-26T04:23:18;101637.00;;;10.06;38.71
16613;BME280;8419;52.358;9.752;2023-01-26T04:26:04;101638.00;;;10.08;38.73
16613;BME280;8419;52.358;9.752;2023-01-26T04:28:50;101635.00;;;10.08;38.78
16613;BME280;8419;52.358;9.752;2023-01-26T04:31:36;101633.00;;;10.11;38.81
16613;BME280;8419;52.358;9.752;2023-01-26T04:34:22;101633.00;;;10.10;38.82
16613;BME280;8419;52.358;9.752;2023-01-26T04:37:08;101627.00;;;10.14;38.75
16613;BME280;8419;52.358;9.752;2023-01-26T04:39:54;101621.00;;;10.15;38.74
16613;BME280;8419;52.358;9.752;2023-01-26T04:42:39;101620.00;;;10.06;38.87
16613;BME280;8419;52.358;9.752;2023-01-26T04:45:25;101618.00;;;10.07;38.83
16613;BME280;8419;52.358;9.752;2023-01-26T04:48:10;101616.00;;;10.06;38.83
16613;BME280;8419;52.358;9.752;2023-01-26T04:50:58;101612.00;;;10.07;38.90
16613;BME280;8419;52.358;9.752;2023-01-26T04:53:43;101613.00;;;10.11;38.87
16613;BME280;8419;52.358;9.752;2023-01-26T04:56:30;101616.00;;;10.12;38.86
16613;BME280;8419;52.358;9.752;2023-01-26T04:59:16;101625.00;;;10.12;38.89
16613;BME280;8419;52.358;9.752;2023-01-26T05:02:01;101619.00;;;10.11;38.90
16613;BME280;8419;52.358;9.752;2023-01-26T05:04:54;101631.00;;;10.15;38.88
16613;BME280;8419;52.358;9.752;2023-01-26T05:07:42;101622.00;;;10.16;38.87
16613;BME280;8419;52.358;9.752;2023-01-26T05:10:27;101616.00;;;10.20;38.80
16613;BME280;8419;52.358;9.752;2023-01-26T05:13:13;101613.00;;;10.14;38.93
16613;BME280;8419;52.358;9.752;2023-01-26T05:15:59;101605.00;;;10.18;38.86
16613;BME280;8419;52.358;9.752;2023-01-26T05:18:44;101615.00;;;10.16;38.93
16613;BME280;8419;52.358;9.752;2023-01-26T05:21:29;101612.00;;;10.16;38.94
16613;BME280;8419;52.358;9.752;2023-01-26T05:24:14;101609.00;;;10.11;39.01
16613;BME280;8419;52.358;9.752;2023-01-26T05:27:00;101612.00;;;10.19;38.95
16613;BME280;8419;52.358;9.752;2023-01-26T05:30:07;101614.00;;;10.20;38.96
16613;BME280;8419;52.358;9.752;2023-01-26T05:32:53;101615.00;;;10.15;38.99
16613;BME280;8419;52.358;9.752;2023-01-26T05:35:38;101611.00;;;10.03;39.14
16613;BME280;8419;52.358;9.752;2023-01-26T05:38:23;101607.00;;;9.99;39.26
16613;BME280;8419;52.358;9.752;2023-01-26T05:41:10;101613.00;;;9.94;39.31
16613;BME280;8419;52.358;9.752;2023-01-26T05:43:55;101613.00;;;9.92;39.36
16613;BME280;8419;52.358;9.752;2023-01-26T05:46:41;101607.00;;;9.92;39.38
16613;BME280;8419;52.358;9.752;2023-01-26T05:49:26;101624.00;;;9.89;39.44
16613;BME280;8419;52.358;9.752;2023-01-26T05:52:14;101616.00;;;9.92;39.40
16613;BME280;8419;52.358;9.752;2023-01-26T05:55:00;101626.00;;;9.93;39.41
16613;BME280;8419;52.358;9.752;2023-01-26T05:57:46;101622.00;;;9.97;39.38
16613;BME280;8419;52.358;9.752;2023-01-26T06:00:31;101632.00;;;9.97;39.44
16613;BME280;8419;52.358;9.752;2023-01-26T06:03:17;101631.00;;;9.99;39.46
16613;BME280;8419;52.358;9.752;2023-01-26T06:06:03;101634.00;;;9.92;39.59
16613;BME280;8419;52.358;9.752;2023-01-26T06:09:11;101620.00;;;9.90;39.63
16613;BME280;8419;52.358;9.752;2023-01-26T06:11:57;101630.00;;;9.88;39.75
16613;BME280;8419;52.358;9.752;2023-01-26T06:14:42;101623.00;;;9.86;39.82
16613;BME280;8419;52.358;9.752;2023-01-26T06:17:27;101620.00;;;9.90;39.74
16613;BME280;8419;52.358;9.752;2023-01-26T06:20:12;101616.00;;;9.94;39.74
16613;BME280;8419;52.358;9.752;2023-01-26T06:22:59;101618.00;;;9.98;39.66
16613;BME280;8419;52.358;9.752;2023-01-26T06:25:45;101619.00;;;10.05;39.61
16613;BME280;8419;52.358;9.752;2023-01-26T06:28:33;101615.00;;;10.09;39.64
16613;BME280;8419;52.358;9.752;2023-01-26T06:31:20;101621.00;;;10.15;39.57
16613;BME280;8419;52.358;9.752;2023-01-26T06:34:08;101625.00;;;10.15;39.59
16613;BME280;8419;52.358;9.752;2023-01-26T06:36:54;101623.00;;;10.13;39.61
16613;BME280;8419;52.358;9.752;2023-01-26T06:39:40;101633.00;;;10.18;39.55
16613;BME280;8419;52.358;9.752;2023-01-26T06:42:26;101626.00;;;10.17;39.57
16613;BME280;8419;52.358;9.752;2023-01-26T06:45:11;101628.00;;;10.19;39.60
16613;BME280;8419;52.358;9.752;2023-01-26T06:47:57;101632.00;;;10.16;39.69
16613;BME280;8419;52.358;9.752;2023-01-26T06:50:44;101639.00;;;10.19;39.69
16613;BME280;8419;52.358;9.752;2023-01-26T06:53:33;101635.00;;;10.11;39.82
16613;BME280;8419;52.358;9.752;2023-01-26T06:56:19;101636.00;;;10.16;39.78
16613;BME280;8419;52.358;9.752;2023-01-26T06:59:04;101623.00;;;10.16;39.82
16613;BME280;8419;52.358;9.752;2023-01-26T07:01:49;101631.00;;;10.24;39.68
16613;BME280;8419;52.358;9.752;2023-01-26T07:04:34;101628.00;;;10.13;39.92
16613;BME280;8419;52.358;9.752;2023-01-26T07:07:19;101625.00;;;10.17;39.90
16613;BME280;8419;52.358;9.752;2023-01-26T07:10:09;101629.00;;;10.20;39.83
16613;BME280;8419;52.358;9.752;2023-01-26T07:12:55;101640.00;;;10.14;39.97
16613;BME280;8419;52.358;9.752;2023-01-26T07:15:40;101636.00;;;10.09;40.09
16613;BME280;8419;52.358;9.752;2023-01-26T07:18:26;101640.00;;;10.24;39.86
16613;BME280;8419;52.358;9.752;2023-01-26T07:21:13;101646.00;;;10.27;39.78
16613;BME280;8419;52.358;9.752;2023-01-26T07:23:59;101639.00;;;10.26;39.85
16613;BME280;8419;52.358;9.752;2023-01-26T07:26:45;101636.00;;;10.32;39.77
16613;BME280;8419;52.358;9.752;2023-01-26T07:29:30;101639.00;;;10.30;39.83
16613;BME280;8419;52.358;9.752;2023-01-26T07:32:16;101638.00;;;10.36;39.80
16613;BME280;8419;52.358;9.752;2023-01-26T07:35:01;101638.00;;;10.38;39.81
16613;BME280;8419;52.358;9.752;2023-01-26T07:37:46;101636.00;;;10.36;39.86
16613;BME280;8419;52.358;9.752;2023-01-26T07:40:32;101637.00;;;10.40;39.84
16613;BME280;8419;52.358;9.752;2023-01-26T07:43:19;101637.00;;;10.45;39.80
16613;BME280;8419;52.358;9.752;2023-01-26T07:46:05;101638.00;;;10.49;39.78
16613;BME280;8419;52.358;9.752;2023-01-26T07:48:50;101642.00;;;10.49;39.80
16613;BME280;8419;52.358;9.752;2023-01-26T07:51:36;101646.00;;;10.53;39.75
16613;BME280;8419;52.358;9.752;2023-01-26T07:54:22;101649.00;;;10.63;39.67
16613;BME280;8419;52.358;9.752;2023-01-26T07:57:07;101643.00;;;10.59;39.80
16613;BME280;8419;52.358;9.752;2023-01-26T07:59:53;101646.00;;;10.64;39.75
16613;BME280;8419;52.358;9.752;2023-01-26T08:02:38;101644.00;;;10.71;39.67
16613;BME280;8419;52.358;9.752;2023-01-26T08:05:24;101643.00;;;10.64;39.77
16613;BME280;8419;52.358;9.752;2023-01-26T08:08:10;101649.00;;;10.63;39.82
16613;BME280;8419;52.358;9.752;2023-01-26T08:10:56;101642.00;;;10.65;39.85
16613;BME280;8419;52.358;9.752;2023-01-26T08:13:44;101644.00;;;10.80;39.74
16613;BME280;8419;52.358;9.752;2023-01-26T08:16:29;101639.00;;;10.85;39.63
16613;BME280;8419;52.358;9.752;2023-01-26T08:19:15;101648.00;;;10.81;39.74
16613;BME280;8419;52.358;9.752;2023-01-26T08:22:00;101648.00;;;10.81;39.78
16613;BME280;8419;52.358;9.752;2023-01-26T08:24:45;101657.00;;;10.92;39.69
16613;BME280;8419;52.358;9.752;2023-01-26T08:27:31;101661.00;;;11.03;39.54
16613;BME280;8419;52.358;9.752;2023-01-26T08:30:17;101662.00;;;11.06;39.41
16613;BME280;8419;52.358;9.752;2023-01-26T08:33:03;101655.00;;;10.97;39.53
16613;BME280;8419;52.358;9.752;2023-01-26T08:35:48;101661.00;;;10.99;39.55
16613;BME280;8419;52.358;9.752;2023-01-26T08:38:34;101661.00;;;10.93;39.58
16613;BME280;8419;52.358;9.752;2023-01-26T08:41:19;101654.00;;;10.87;39.59
16613;BME280;8419;52.358;9.752;2023-01-26T08:44:04;101661.00;;;10.96;39.45
16613;BME280;8419;52.358;9.752;2023-01-26T08:46:50;101668.00;;;10.88;39.53
16613;BME280;8419;52.358;9.752;2023-01-26T08:49:35;101663.00;;;10.87;39.55
16613;BME280;8419;52.358;9.752;2023-01-26T08:52:20;101662.00;;;10.79;39.65
16613;BME280;8419;52.358;9.752;2023-01-26T08:55:07;101659.00;;;10.87;39.58
16613;BME280;8419;52.358;9.752;2023-01-26T08:57:53;101662.00;;;10.83;39.58
16613;BME280;8419;52.358;9.752;2023-01-26T09:00:39;101661.00;;;10.79;39.63
16613;BME280;8419;52.358;9.752;2023-01-26T09:03:24;101668.00;;;10.74;39.67
16613;BME280;8419;52.358;9.752;2023-01-26T09:06:11;101673.00;;;10.74;39.72
16613;BME280;8419;52.358;9.752;2023-01-26T09:08:57;101671.00;;;10.85;39.68
16613;BME280;8419;52.358;9.752;2023-01-26T09:11:42;101669.00;;;10.87;39.67
16613;BME280;8419;52.358;9.752;2023-01-26T09:14:27;101668.00;;;10.90;39.67
16613;BME280;8419;52.358;9.752;2023-01-26T09:17:12;101662.00;;;10.92;39.68
16613;BME280;8419;52.358;9.752;2023-01-26T09:19:58;101662.00;;;10.92;39.67
16613;BME280;8419;52.358;9.752;2023-01-26T09:22:43;101670.00;;;10.98;39.65
16613;BME280;8419;52.358;9.752;2023-01-26T09:25:28;101666.00;;;11.05;39.52
16613;BME280;8419;52.358;9.752;2023-01-26T09:28:14;101664.00;;;10.99;39.54
16613;BME280;8419;52.358;9.752;2023-01-26T09:31:04;101665.00;;;10.95;39.66
16613;BME280;8419;52.358;9.752;2023-01-26T09:33:49;101664.00;;;10.93;39.72
16613;BME280;8419;52.358;9.752;2023-01-26T09:36:35;101667.00;;;10.98;39.65
16613;BME280;8419;52.358;9.752;2023-01-26T09:39:20;101669.00;;;10.89;39.73
16613;BME280;8419;52.358;9.752;2023-01-26T09:42:27;101664.00;;;10.81;39.90
16613;BME280;8419;52.358;9.752;2023-01-26T09:45:22;101655.00;;;10.79;39.99
16613;BME280;8419;52.358;9.752;2023-01-26T09:48:20;101662.00;;;10.78;40.06
16613;BME280;8419;52.358;9.752;2023-01-26T09:51:10;101655.00;;;10.81;40.04
16613;BME280;8419;52.358;9.752;2023-01-26T09:54:03;101659.00;;;10.87;39.99
16613;BME280;8419;52.358;9.752;2023-01-26T09:56:49;101653.00;;;10.91;39.95
16613;BME280;8419;52.358;9.752;2023-01-26T09:59:39;101653.00;;;10.92;39.87
16613;BME280;8419;52.358;9.752;2023-01-26T10:02:41;101653.00;;;10.96;39.87
16613;BME280;8419;52.358;9.752;2023-01-26T10:05:39;101647.00;;;10.97;39.85
16613;BME280;8419;52.358;9.752;2023-01-26T10:08:26;101646.00;;;11.01;39.84
16613;BME280;8419;52.358;9.752;2023-01-26T10:11:16;101646.00;;;11.03;39.82
16613;BME280;8419;52.358;9.752;2023-01-26T10:14:06;101647.00;;;11.02;39.76
16613;BME280;8419;52.358;9.752;2023-01-26T10:16:56;101645.00;;;10.98;39.81
16613;BME280;8419;52.358;9.752;2023-01-26T10:19:46;101645.00;;;11.00;39.85
16613;BME280;8419;52.358;9.752;2023-01-26T10:22:41;101648.00;;;11.03;39.81
16613;BME280;8419;52.358;9.752;2023-01-26T10:25:33;101644.00;;;11.13;39.78
16613;BME280;8419;52.358;9.752;2023-01-26T10:28:28;101651.00;;;11.26;39.68
16613;BME280;8419;52.358;9.752;2023-01-26T10:31:16;101646.00;;;11.32;39.58
16613;BME280;8419;52.358;9.752;2023-01-26T10:34:09;101647.00;;;11.39;39.55
16613;BME280;8419;52.358;9.752;2023-01-26T10:37:10;101628.00;;;11.37;39.56
16613;BME280;8419;52.358;9.752;2023-01-26T10:40:01;101634.00;;;11.33;39.67
16613;BME280;8419;52.358;9.752;2023-01-26T10:42:55;101618.00;;;11.43;39.64
16613;BME280;8419;52.358;9.752;2023-01-26T10:45:46;101624.00;;;11.41;39.64
16613;BME280;8419;52.358;9.752;2023-01-26T10:48:31;101616.00;;;11.54;39.61
16613;BME280;8419;52.358;9.752;2023-01-26T10:51:24;101614.00;;;11.64;39.44
16613;BME280;8419;52.358;9.752;2023-01-26T10:54:21;101610.00;;;11.79;39.46
16613;BME280;8419;52.358;9.752;2023-01-26T10:57:17;101611.00;;;11.84;39.47
16613;BME280;8419;52.358;9.752;2023-01-26T11:00:21;101607.00;;;12.00;39.32
16613;BME280;8419;52.358;9.752;2023-01-26T11:03:17;101610.00;;;12.01;39.30
16613;BME280;8419;52.358;9.752;2023-01-26T11:06:11;101598.00;;;12.05;39.22
16613;BME280;8419;52.358;9.752;2023-01-26T11:09:09;101598.00;;;12.16;39.16
16613;BME280;8419;52.358;9.752;2023-01-26T11:12:00;101596.00;;;12.12;38.94
16613;BME280;8419;52.358;9.752;2023-01-26T11:14:59;101594.00;;;12.00;39.14
16613;BME280;8419;52.358;9.752;2023-01-26T11:17:50;101595.00;;;11.99;39.13
16613;BME280;8419;52.358;9.752;2023-01-26T11:20:45;101595.00;;;11.84;39.27
16613;BME280;8419;52.358;9.752;2023-01-26T11:23:43;101589.00;;;11.77;39.42
16613;BME280;8419;52.358;9.752;2023-01-26T11:30:18;101587.00;;;11.88;39.20
16613;BME280;8419;52.358;9.752;2023-01-26T11:33:18;101584.00;;;11.88;39.22
16613;BME280;8419;52.358;9.752;2023-01-26T11:36:12;101579.00;;;11.91;39.16
16613;BME280;8419;52.358;9.752;2023-01-26T11:39:05;101585.00;;;11.93;39.20
16613;BME280;8419;52.358;9.752;2023-01-26T11:42:15;101587.00;;;11.91;39.15
16613;BME280;8419;52.358;9.752;2023-01-26T11:45:15;101585.00;;;11.71;39.42
16613;BME280;8419;52.358;9.752;2023-01-26T11:48:15;101569.00;;;11.67;39.49
16613;BME280;8419;52.358;9.752;2023-01-26T11:51:13;101571.00;;;11.65;39.62
16613;BME280;8419;52.358;9.752;2023-01-26T11:54:11;101570.00;;;11.76;39.41
16613;BME280;8419;52.358;9.752;2023-01-26T11:57:05;101563.00;;;11.74;39.54
16613;BME280;8419;52.358;9.752;2023-01-26T11:59:57;101561.00;;;11.73;39.60
16613;BME280;8419;52.358;9.752;2023-01-26T12:02:49;101567.00;;;11.73;39.71
16613;BME280;8419;52.358;9.752;2023-01-26T12:05:42;101560.00;;;11.75;39.77
16613;BME280;8419;52.358;9.752;2023-01-26T12:08:33;101548.00;;;11.84;39.67
16613;BME280;8419;52.358;9.752;2023-01-26T12:11:27;101554.00;;;11.90;39.54
16613;BME280;8419;52.358;9.752;2023-01-26T12:14:19;101561.00;;;11.97;39.50
16613;BME280;8419;52.358;9.752;2023-01-26T12:17:19;101547.00;;;12.02;39.47
16613;BME280;8419;52.358;9.752;2023-01-26T12:20:21;101550.00;;;11.96;39.54
16613;BME280;8419;52.358;9.752;2023-01-26T12:23:12;101546.00;;;11.89;39.62
16613;BME280;8419;52.358;9.752;2023-01-26T12:26:04;101539.00;;;11.78;39.66
16613;BME280;8419;52.358;9.752;2023-01-26T12:29:00;101542.00;;;11.77;39.67
16613;BME280;8419;52.358;9.752;2023-01-26T12:31:57;101550.00;;;11.71;39.74
16613;BME280;8419;52.358;9.752;2023-01-26T12:34:45;101545.00;;;11.69;39.72
16613;BME280;8419;52.358;9.752;2023-01-26T12:37:40;101541.00;;;11.64;39.65
16613;BME280;8419;52.358;9.752;2023-01-26T12:40:35;101535.00;;;11.51;39.92
16613;BME280;8419;52.358;9.752;2023-01-26T12:43:35;101532.00;;;11.59;39.84
16613;BME280;8419;52.358;9.752;2023-01-26T12:46:24;101533.00;;;11.66;39.74
16613;BME280;8419;52.358;9.752;2023-01-26T12:49:16;101517.00;;;11.58;39.81
16613;BME280;8419;52.358;9.752;2023-01-26T12:52:09;101515.00;;;11.52;39.98
16613;BME280;8419;52.358;9.752;2023-01-26T12:55:00;101516.00;;;11.52;40.04
16613;BME280;8419;52.358;9.752;2023-01-26T12:57:51;101517.00;;;11.61;39.94
16613;BME280;8419;52.358;9.752;2023-01-26T13:00:38;101514.00;;;11.65;39.96
16613;BME280;8419;52.358;9.752;2023-01-26T13:03:27;101512.00;;;11.69;39.80
16613;BME280;8419;52.358;9.752;2023-01-26T13:06:19;101506.00;;;11.74;39.76
16613;BME280;8419;52.358;9.752;2023-01-26T13:09:20;101508.00;;;11.70;39.85
16613;BME280;8419;52.358;9.752;2023-01-26T13:12:46;101516.00;;;11.74;39.88
16613;BME280;8419;52.358;9.752;2023-01-26T13:15:32;101509.00;;;11.81;39.69
16613;BME280;8419;52.358;9.752;2023-01-26T13:18:19;101510.00;;;11.68;39.89
16613;BME280;8419;52.358;9.752;2023-01-26T13:21:46;101505.00;;;11.55;40.06
16613;BME280;8419;52.358;9.752;2023-01-26T13:24:46;101504.00;;;11.58;40.06
16613;BME280;8419;52.358;9.752;2023-01-26T13:27:35;101502.00;;;11.57;40.16
16613;BME280;8419;52.358;9.752;2023-01-26T13:30:44;101497.00;;;11.55;40.20
16613;BME280;8419;52.358;9.752;2023-01-26T13:33:30;101496.00;;;11.58;40.31
16613;BME280;8419;52.358;9.752;2023-01-26T13:36:17;101494.00;;;11.56;40.34
16613;BME280;8419;52.358;9.752;2023-01-26T13:39:11;101501.00;;;11.54;40.36
16613;BME280;8419;52.358;9.752;2023-01-26T13:41:59;101499.00;;;11.47;40.52
16613;BME280;8419;52.358;9.752;2023-01-26T13:44:50;101495.00;;;11.49;40.53
16613;BME280;8419;52.358;9.752;2023-01-26T13:47:39;101500.00;;;11.54;40.48
16613;BME280;8419;52.358;9.752;2023-01-26T13:50:33;101498.00;;;11.57;40.37
16613;BME280;8419;52.358;9.752;2023-01-26T13:53:32;101503.00;;;11.45;40.59
16613;BME280;8419;52.358;9.752;2023-01-26T13:56:25;101498.00;;;11.44;40.63
16613;BME280;8419;52.358;9.752;2023-01-26T13:59:12;101503.00;;;11.51;40.52
16613;BME280;8419;52.358;9.752;2023-01-26T14:02:00;101497.00;;;11.55;40.52
16613;BME280;8419;52.358;9.752;2023-01-26T14:04:51;101501.00;;;11.57;40.54
16613;BME280;8419;52.358;9.752;2023-01-26T14:07:41;101503.00;;;11.56;40.60
16613;BME280;8419;52.358;9.752;2023-01-26T14:10:28;101506.00;;;11.57;40.58
16613;BME280;8419;52.358;9.752;2023-01-26T14:13:19;101515.00;;;11.56;40.59
16613;BME280;8419;52.358;9.752;2023-01-26T14:16:17;101521.00;;;11.55;40.70
16613;BME280;8419;52.358;9.752;2023-01-26T14:19:09;101525.00;;;11.59;40.61
16613;BME280;8419;52.358;9.752;2023-01-26T14:21:58;101520.00;;;11.55;40.67
16613;BME280;8419;52.358;9.752;2023-01-26T14:24:47;101520.00;;;11.55;40.72
16613;BME280;8419;52.358;9.752;2023-01-26T14:27:36;101529.00;;;11.60;40.66
16613;BME280;8419;52.358;9.752;2023-01-26T14:30:26;101533.00;;;11.61;40.73
16613;BME280;8419;52.358;9.752;2023-01-26T14:33:14;101539.00;;;11.69;40.61
16613;BME280;8419;52.358;9.752;2023-01-26T14:36:05;101525.00;;;11.72;40.63
16613;BME280;8419;52.358;9.752;2023-01-26T14:38:52;101523.00;;;11.72;40.64
16613;BME280;8419;52.358;9.752;2023-01-26T14:41:37;101527.00;;;11.74;40.62
16613;BME280;8419;52.358;9.752;2023-01-26T14:44:24;101527.00;;;11.74;40.65
16613;BME280;8419;52.358;9.752;2023-01-26T14:47:16;101530.00;;;11.79;40.60
16613;BME280;8419;52.358;9.752;2023-01-26T14:50:10;101529.00;;;11.85;40.51
16613;BME280;8419;52.358;9.752;2023-01-26T14:52:59;101523.00;;;11.70;40.87
16613;BME280;8419;52.358;9.752;2023-01-26T14:55:45;101524.00;;;11.84;40.75
16613;BME280;8419;52.358;9.752;2023-01-26T14:58:33;101528.00;;;11.81;40.76
16613;BME280;8419;52.358;9.752;2023-01-26T15:01:25;101518.00;;;11.91;40.63
16613;BME280;8419;52.358;9.752;2023-01-26T15:04:21;101533.00;;;11.89;40.64
16613;BME280;8419;52.358;9.752;2023-01-26T15:10:41;101519.00;;;11.98;40.76
16613;BME280;8419;52.358;9.752;2023-01-26T15:13:30;101526.00;;;11.93;40.67
16613;BME280;8419;52.358;9.752;2023-01-26T15:16:17;101528.00;;;12.00;40.58